Time;durP1;ratioP1;P1;durP2;ratioP2;P2;SDS_P1;SDS_P2;PMS_P1;PMS_P2;Temp;Humidity;BMP_temperature;BMP_pressure;BME280_temperature;BME280_humidity;BME280_pressure;Samples;Min_cycle;Max_cycle;Signal;HPM_P1;HPM_P2
2021/04/09 00:01:44;;;;;;;10.58;8.78;;;;;;;3.18;69.36;100852.45;2753181;85;21164;-62
2021/04/09 00:05:47;;;;;;;17.02;8.38;;;;;;;3.19;69.10;100851.53;2758163;85;21172;-60
2021/04/09 00:09:50;;;;;;;15.03;8.30;;;;;;;3.21;68.90;100845.75;2779224;85;21164;-60
2021/04/09 00:13:54;;;;;;;10.10;7.25;;;;;;;3.22;68.61;100843.52;2779647;85;21180;-60
2021/04/09 00:17:59;;;;;;;12.78;7.53;;;;;;;3.21;68.45;100852.32;2779203;85;21120;-60
2021/04/09 00:22:03;;;;;;;14.35;8.48;;;;;;;3.14;68.29;100842.07;2779376;85;21160;-60
2021/04/09 00:26:09;;;;;;;10.63;8.55;;;;;;;3.08;68.41;100844.97;2779429;85;21124;-60
2021/04/09 00:30:24;;;;;;;9.83;6.80;;;;;;;3.09;68.32;100851.06;2779739;85;21096;-61
2021/04/09 00:34:27;;;;;;;15.23;8.08;;;;;;;3.08;68.22;100849.35;2779606;85;21128;-61
2021/04/09 00:38:30;;;;;;;12.28;8.35;;;;;;;3.03;68.08;100844.28;2779367;85;21136;-62
2021/04/09 00:42:33;;;;;;;17.55;9.23;;;;;;;2.95;68.00;100835.42;2779631;85;21167;-62
2021/04/09 00:46:37;;;;;;;14.85;9.85;;;;;;;2.85;68.00;100837.58;2848454;83;21167;-62
2021/04/09 00:50:42;;;;;;;13.40;9.18;;;;;;;2.83;68.03;100848.58;2848946;83;21126;-61
2021/04/09 00:54:47;;;;;;;14.38;8.93;;;;;;;2.83;68.03;100848.58;2848394;83;21106;-61
2021/04/09 00:59:01;;;;;;;13.38;7.87;;;;;;;2.84;68.12;100840.25;2848639;83;21225;-61
2021/04/09 01:03:12;;;;;;;18.90;8.85;;;;;;;2.82;68.04;100846.03;2773829;85;21130;-62
2021/04/09 01:07:19;;;;;;;16.87;9.10;;;;;;;2.78;68.10;100844.45;2793547;85;21130;-61
2021/04/09 01:11:22;;;;;;;15.78;9.03;;;;;;;2.79;68.00;100843.05;2785482;85;21588;-61
2021/04/09 01:15:29;;;;;;;13.83;7.90;;;;;;;2.77;68.02;100836.17;2785561;85;21572;-61
2021/04/09 01:20:09;;;;;;;;;;;;;;;2.76;68.30;100834.47;2766668;85;21525;-61
2021/04/09 01:29:26;;;;;;;12.30;8.50;;;;;;;2.76;69.20;100833.16;3013856;78;22924;-60
2021/04/09 01:33:37;;;;;;;16.25;9.50;;;;;;;2.70;69.01;100819.80;2918985;80;21141;-60
2021/04/09 01:37:47;;;;;;;14.00;8.03;;;;;;;2.73;69.17;100826.23;2861779;82;21101;-60
2021/04/09 01:41:54;;;;;;;16.77;8.93;;;;;;;2.77;69.10;100823.04;2878110;81;21086;-60
2021/04/09 01:46:00;;;;;;;14.53;9.98;;;;;;;2.77;69.12;100810.73;2853105;83;21567;-60
2021/04/09 01:50:08;;;;;;;11.53;8.73;;;;;;;2.79;69.09;100812.84;2866810;81;21125;-60
2021/04/09 01:54:12;;;;;;;13.78;7.30;;;;;;;2.75;69.27;100803.83;2853124;83;21126;-60
2021/04/09 01:58:17;;;;;;;27.90;9.03;;;;;;;2.74;69.57;100797.73;2866349;83;21142;-60
2021/04/09 02:02:23;;;;;;;15.38;8.48;;;;;;;2.75;69.78;100799.88;2853341;83;21133;-60
2021/04/09 02:06:29;;;;;;;16.75;9.70;;;;;;;2.73;69.98;100795.16;2853146;83;21142;-60
2021/04/09 02:10:34;;;;;;;15.03;10.08;;;;;;;2.71;70.29;100788.66;2853132;83;21106;-59
2021/04/09 02:14:43;;;;;;;9.97;7.53;;;;;;;2.71;70.38;100784.73;2853439;82;21114;-59
2021/04/09 02:18:46;;;;;;;15.23;7.87;;;;;;;2.65;70.63;100780.57;2852767;83;21118;-60
2021/04/09 02:22:53;;;;;;;15.25;7.70;;;;;;;2.58;70.92;100781.75;2853072;83;21110;-60
2021/04/09 02:26:58;;;;;;;17.48;8.90;;;;;;;2.47;71.12;100780.00;2855353;83;21153;-60
2021/04/09 02:31:03;;;;;;;14.53;10.08;;;;;;;2.31;71.49;100775.35;2859232;83;21086;-60
2021/04/09 02:35:13;;;;;;;16.17;10.33;;;;;;;2.27;71.80;100776.40;2859279;83;21097;-60
2021/04/09 02:39:30;;;;;;;15.38;10.20;;;;;;;2.25;71.90;100768.56;2858229;83;21134;-60
2021/04/09 02:43:36;;;;;;;20.12;11.60;;;;;;;2.20;71.82;100772.31;2857958;83;21567;-60
2021/04/09 02:47:39;;;;;;;18.77;10.90;;;;;;;2.19;71.78;100759.63;2858052;83;21141;-59
2021/04/09 02:51:49;;;;;;;22.85;13.78;;;;;;;2.16;71.85;100757.12;2858113;83;21556;-60
2021/04/09 02:55:54;;;;;;;21.60;13.03;;;;;;;2.16;71.86;100756.27;2858017;83;21097;-60
2021/04/09 03:00:00;;;;;;;26.12;12.85;;;;;;;2.18;71.77;100754.45;2858234;83;21113;-60
2021/04/09 03:04:07;;;;;;;17.55;12.88;;;;;;;2.20;71.59;100756.09;2857975;83;21165;-60
2021/04/09 03:08:13;;;;;;;20.05;11.70;;;;;;;2.21;71.33;100747.30;2858431;83;21161;-64
2021/04/09 03:12:19;;;;;;;21.45;12.18;;;;;;;2.17;71.59;100750.97;2856746;83;21504;-62
2021/04/09 03:16:25;;;;;;;19.40;11.78;;;;;;;2.14;71.75;100746.67;2842379;83;21511;-62
2021/04/09 03:20:28;;;;;;;30.30;17.15;;;;;;;2.07;71.97;100728.16;2831408;83;21563;-69
2021/04/09 03:24:33;;;;;;;17.95;15.08;;;;;;;1.91;72.72;100725.73;2857544;83;21599;-69
2021/04/09 03:28:36;;;;;;;25.37;11.65;;;;;;;1.77;73.00;100738.95;2858405;83;21129;-69
2021/04/09 03:32:45;;;;;;;19.73;11.12;;;;;;;1.82;72.80;100736.99;2858907;83;21117;-69
2021/04/09 03:36:53;;;;;;;20.65;11.73;;;;;;;1.70;73.38;100715.15;2858877;83;21551;-69
2021/04/09 03:40:56;;;;;;;18.57;9.73;;;;;;;1.58;73.83;100719.09;2858569;83;21070;-69
2021/04/09 03:44:59;;;;;;;13.70;10.45;;;;;;;1.70;73.73;100712.09;2858853;83;21134;-69
2021/04/09 03:49:04;;;;;;;17.77;10.80;;;;;;;1.77;73.77;100693.04;2858885;83;21097;-69
2021/04/09 03:53:09;;;;;;;20.48;11.50;;;;;;;1.83;73.62;100690.17;2858574;83;21386;-69
2021/04/09 03:57:12;;;;;;;20.97;9.30;;;;;;;1.83;73.33;100701.97;2825536;84;21128;-69
2021/04/09 04:01:15;;;;;;;18.82;8.33;;;;;;;1.76;73.51;100698.33;2825668;83;21108;-69
2021/04/09 04:05:19;;;;;;;14.50;10.38;;;;;;;1.60;74.18;100688.89;2825775;83;21120;-66
2021/04/09 04:09:23;;;;;;;17.67;10.95;;;;;;;1.50;74.58;100687.91;2825475;83;21163;-67
2021/04/09 04:13:27;;;;;;;18.30;12.45;;;;;;;1.45;74.56;100691.61;2826186;83;21069;-66
2021/04/09 04:17:30;;;;;;;21.62;11.90;;;;;;;1.41;74.76;100687.80;2825595;84;21140;-67
2021/04/09 04:21:39;;;;;;;19.35;10.15;;;;;;;1.37;75.27;100679.66;2831585;83;21138;-67
2021/04/09 04:25:41;;;;;;;19.35;12.23;;;;;;;1.37;75.64;100673.10;2844015;83;21196;-70
2021/04/09 04:29:46;;;;;;;13.90;11.28;;;;;;;1.38;75.87;100672.19;2850534;83;21134;-69
2021/04/09 04:33:51;;;;;;;17.90;11.90;;;;;;;1.49;75.60;100657.84;2858050;83;21102;-70
2021/04/09 04:37:59;;;;;;;11.43;9.20;;;;;;;1.49;75.60;100657.84;2858479;83;21553;-70
2021/04/09 04:42:06;;;;;;;17.32;9.73;;;;;;;1.83;76.14;100659.12;2858010;83;21814;-65
2021/04/09 04:46:09;;;;;;;20.77;12.47;;;;;;;2.32;75.28;100654.98;2857471;83;21559;-68
2021/04/09 04:50:15;;;;;;;14.40;11.67;;;;;;;3.17;73.49;100633.41;2858261;83;21098;-68
2021/04/09 04:54:21;;;;;;;;;;;;;;;3.17;73.49;100633.41;2861022;83;21098;-69
2021/04/09 04:58:27;;;;;;;21.87;10.72;;;;;;;3.81;71.76;100648.42;2858426;82;20128;-69
2021/04/09 05:02:32;;;;;;;25.73;10.83;;;;;;;4.18;69.62;100647.08;2858604;83;21086;-69
2021/04/09 05:06:36;;;;;;;14.90;9.88;;;;;;;4.60;68.86;100654.23;2858293;83;21528;-70
2021/04/09 05:10:39;;;;;;;19.62;11.43;;;;;;;4.90;67.28;100650.09;2858422;83;21105;-69
2021/04/09 05:14:42;;;;;;;14.10;9.18;;;;;;;5.18;66.27;100644.67;2858313;83;21415;-69
2021/04/09 05:18:45;;;;;;;14.00;9.88;;;;;;;5.57;64.58;100641.66;2858219;83;21139;-71
2021/04/09 05:22:50;;;;;;;16.65;9.23;;;;;;;6.08;62.59;100639.78;2858164;83;21137;-71
2021/04/09 05:26:56;;;;;;;16.05;9.15;;;;;;;6.55;61.37;100635.30;2855785;82;21110;-71
2021/04/09 05:31:02;;;;;;;11.53;7.53;;;;;;;6.92;59.83;100636.19;2846981;83;21544;-68
2021/04/09 05:35:08;;;;;;;16.07;6.80;;;;;;;7.24;58.75;100634.20;2857254;83;21137;-68
2021/04/09 05:39:14;;;;;;;13.25;7.62;;;;;;;7.58;57.51;100634.73;2851132;83;21165;-70
2021/04/09 05:43:20;;;;;;;13.88;7.65;;;;;;;7.77;57.12;100628.74;2854737;83;21117;-70
2021/04/09 05:47:26;;;;;;;7.53;6.83;;;;;;;8.01;55.67;100617.00;2857822;83;21125;-71
2021/04/09 05:51:30;;;;;;;14.28;7.67;;;;;;;8.11;55.55;100614.59;2855808;83;21130;-69
2021/04/09 05:55:36;;;;;;;13.30;7.53;;;;;;;8.23;55.44;100609.81;2791444;85;21169;-70
2021/04/09 05:59:40;;;;;;;11.87;8.83;;;;;;;8.34;54.77;100598.48;2784185;85;21121;-69
2021/04/09 06:03:44;;;;;;;14.83;6.90;;;;;;;8.35;54.29;100604.16;2748960;86;21606;-70
2021/04/09 06:07:47;;;;;;;12.03;6.55;;;;;;;8.54;54.11;100605.09;2714452;87;21150;-71
2021/04/09 06:11:50;;;;;;;9.35;5.95;;;;;;;8.73;53.07;100600.35;2751152;85;21149;-69
2021/04/09 06:15:54;;;;;;;8.43;5.90;;;;;;;8.85;52.11;100590.23;2774206;85;21550;-72
2021/04/09 06:19:57;;;;;;;10.10;5.47;;;;;;;8.99;51.82;100592.73;2774247;85;21144;-73
2021/04/09 06:24:00;;;;;;;8.35;5.60;;;;;;;9.02;51.18;100592.15;2773789;85;21133;-69
2021/04/09 06:28:03;;;;;;;6.35;4.83;;;;;;;9.08;51.23;100585.10;2805406;83;21109;-72
2021/04/09 06:32:08;;;;;;;11.63;6.65;;;;;;;9.22;50.68;100571.67;2853857;82;21097;-72
2021/04/09 06:36:11;;;;;;;9.15;5.87;;;;;;;9.38;50.18;100577.21;2854223;83;21145;-69
2021/04/09 06:40:15;;;;;;;9.83;7.87;;;;;;;9.45;49.54;100564.34;2854104;83;21110;-71
2021/04/09 06:44:20;;;;;;;11.30;7.50;;;;;;;9.54;49.76;100570.33;2837458;83;21126;-70
2021/04/09 06:48:24;;;;;;;7.87;5.53;;;;;;;9.56;49.72;100565.25;2861875;81;21121;-71
2021/04/09 06:52:28;;;;;;;9.80;6.60;;;;;;;9.71;49.91;100561.94;2865653;82;21543;-72
2021/04/09 06:56:33;;;;;;;9.00;5.87;;;;;;;9.88;50.07;100561.66;2866304;81;21142;-72
2021/04/09 07:00:38;;;;;;;14.05;6.55;;;;;;;9.94;48.47;100552.77;2865765;83;21183;-70
2021/04/09 07:04:42;;;;;;;12.13;5.97;;;;;;;9.90;49.06;100553.09;2839916;83;21133;-71
2021/04/09 07:08:45;;;;;;;8.05;5.83;;;;;;;9.96;48.94;100553.48;2863694;82;21120;-71
2021/04/09 07:12:50;;;;;;;9.43;5.90;;;;;;;10.14;49.64;100548.58;2829168;83;21181;-72
2021/04/09 07:17:03;;;;;;;8.83;6.70;;;;;;;10.24;48.90;100550.55;2801380;83;21161;-69
2021/04/09 07:21:10;;;;;;;11.25;7.25;;;;;;;10.29;48.71;100541.23;2840738;83;21179;-69
2021/04/09 07:25:22;;;;;;;8.20;5.90;;;;;;;10.46;49.27;100535.13;2827175;83;21591;-67
2021/04/09 07:29:36;;;;;;;7.30;6.55;;;;;;;10.61;47.69;100538.44;2844041;82;21201;-75
2021/04/09 07:33:46;;;;;;;8.13;6.50;;;;;;;10.69;47.71;100536.01;2842228;82;21649;-69
2021/04/09 07:37:56;;;;;;;13.55;7.72;;;;;;;10.79;48.03;100529.48;2844164;82;21536;-72
2021/04/09 07:42:14;;;;;;;7.28;6.55;;;;;;;10.88;47.06;100523.05;2843728;83;21145;-72
2021/04/09 07:46:24;;;;;;;9.95;7.83;;;;;;;10.95;47.97;100517.63;2841573;82;21106;-68
2021/04/09 07:50:43;;;;;;;8.95;8.05;;;;;;;11.14;46.80;100516.98;2839991;82;21180;-70
2021/04/09 07:54:46;;;;;;;15.05;9.50;;;;;;;11.25;46.84;100513.44;2815662;83;21079;-70
2021/04/09 07:58:58;;;;;;;8.75;6.95;;;;;;;11.39;47.60;100510.51;2840852;83;21556;-75
2021/04/09 08:03:01;;;;;;;9.13;7.17;;;;;;;11.59;46.79;100514.68;2852459;83;21261;-75
2021/04/09 08:07:04;;;;;;;8.65;7.83;;;;;;;11.51;46.53;100506.48;2836813;82;21151;-71
2021/04/09 08:11:34;;;;;;;8.85;7.92;;;;;;;11.53;47.04;100505.88;2851762;83;21137;-72
2021/04/09 08:15:37;;;;;;;13.53;7.55;;;;;;;11.58;46.69;100502.33;2844400;83;21149;-70
2021/04/09 08:19:42;;;;;;;10.60;6.22;;;;;;;11.67;47.54;100500.22;2855536;83;21635;-70
2021/04/09 08:23:45;;;;;;;13.32;8.15;;;;;;;11.84;46.94;100501.50;2843022;83;21585;-72
2021/04/09 08:27:51;;;;;;;9.10;7.22;;;;;;;12.02;46.06;100491.63;2836172;82;21173;-71
2021/04/09 08:31:55;;;;;;;9.78;7.55;;;;;;;12.07;46.21;100488.07;2787597;85;21145;-74
2021/04/09 08:35:58;;;;;;;11.50;6.22;;;;;;;12.09;46.55;100476.78;2789853;85;21174;-72
2021/04/09 08:40:04;;;;;;;8.25;6.37;;;;;;;12.17;45.82;100476.12;2738365;86;21198;-70
2021/04/09 08:44:11;;;;;;;12.53;8.00;;;;;;;12.22;45.57;100469.08;2754834;85;21102;-72
2021/04/09 08:48:17;;;;;;;9.85;6.92;;;;;;;12.31;46.43;100469.59;2749410;85;21179;-72
2021/04/09 08:52:23;;;;;;;10.10;6.92;;;;;;;12.20;45.16;100458.53;2747833;85;21631;-71
2021/04/09 08:56:34;;;;;;;7.57;6.67;;;;;;;12.07;46.64;100456.07;2776403;85;21166;-72
2021/04/09 09:00:37;;;;;;;9.93;7.70;;;;;;;12.05;45.69;100454.03;2766120;85;21161;-71
2021/04/09 09:04:41;;;;;;;14.63;7.53;;;;;;;12.07;45.80;100453.41;2777515;85;21140;-76
2021/04/09 09:08:50;;;;;;;10.90;8.48;;;;;;;12.24;46.07;100443.11;2802197;85;21114;-69
2021/04/09 09:13:15;;;;;;;9.40;6.90;;;;;;;12.35;45.51;100440.34;2786575;85;21153;-71
2021/04/09 09:17:26;;;;;;;15.15;8.10;;;;;;;12.49;44.85;100443.16;2794915;85;21102;-71
2021/04/09 09:21:36;;;;;;;9.48;8.28;;;;;;;12.64;44.73;100424.95;2791176;84;21129;-72
2021/04/09 09:25:40;;;;;;;10.82;7.03;;;;;;;12.84;45.59;100420.99;2802346;84;21158;-70
2021/04/09 09:29:47;;;;;;;11.18;8.03;;;;;;;13.12;44.69;100419.83;2827497;83;21122;-73
2021/04/09 09:33:50;;;;;;;13.20;8.33;;;;;;;13.22;44.65;100403.81;2855571;83;21114;-72
2021/04/09 09:37:54;;;;;;;13.20;9.10;;;;;;;13.32;44.10;100402.47;2852703;83;21172;-72
2021/04/09 09:41:58;;;;;;;11.93;7.42;;;;;;;13.41;44.89;100408.32;2844495;83;21106;-74
2021/04/09 09:46:03;;;;;;;8.28;6.95;;;;;;;13.50;43.94;100407.48;2844340;83;21632;-75
2021/04/09 09:50:11;;;;;;;8.15;6.70;;;;;;;13.58;44.37;100411.30;2846413;83;21581;-73
2021/04/09 09:54:30;;;;;;;8.70;6.25;;;;;;;13.63;44.31;100401.02;2847170;83;21101;-72
2021/04/09 09:58:33;;;;;;;8.68;7.30;;;;;;;13.66;44.10;100396.72;2858740;83;21110;-74
2021/04/09 10:02:36;;;;;;;13.58;8.83;;;;;;;13.80;45.53;100396.27;2825186;83;21105;-74
2021/04/09 10:06:45;;;;;;;10.23;8.73;;;;;;;13.88;44.61;100386.19;2855462;83;21086;-71
2021/04/09 10:11:02;;;;;;;10.53;6.78;;;;;;;13.92;44.32;100382.72;2854782;83;21086;-74
2021/04/09 10:15:06;;;;;;;22.45;8.28;;;;;;;14.00;44.07;100378.33;2857288;83;21563;-72
2021/04/09 10:19:09;;;;;;;11.55;7.37;;;;;;;14.07;44.11;100369.73;2854457;83;21102;-72
2021/04/09 10:23:13;;;;;;;9.05;7.35;;;;;;;14.12;45.19;100368.28;2853723;83;21142;-76
2021/04/09 10:27:16;;;;;;;12.03;8.13;;;;;;;14.12;44.61;100364.27;2828734;83;21116;-72
2021/04/09 10:31:21;;;;;;;9.73;7.20;;;;;;;14.31;45.78;100355.81;2809183;82;21128;-72
2021/04/09 10:35:28;;;;;;;9.20;7.30;;;;;;;14.46;44.86;100353.98;2846305;83;21093;-76
2021/04/09 10:39:31;;;;;;;12.82;7.97;;;;;;;14.54;43.92;100327.30;2861546;82;21166;-71
2021/04/09 10:43:36;;;;;;;11.85;7.50;;;;;;;14.52;43.72;100337.31;2854245;83;21134;-72
2021/04/09 10:47:39;;;;;;;9.10;7.05;;;;;;;14.59;44.48;100325.52;2858806;83;21117;-74
2021/04/09 10:51:47;;;;;;;8.40;7.55;;;;;;;14.72;44.67;100322.02;2854883;83;21188;-75
2021/04/09 10:55:50;;;;;;;23.57;10.15;;;;;;;14.92;43.01;100323.20;2853787;83;21141;-73
2021/04/09 10:59:57;;;;;;;17.32;8.98;;;;;;;14.97;42.89;100320.89;2853632;82;21130;-73
2021/04/09 11:04:00;;;;;;;11.97;7.00;;;;;;;15.05;43.03;100316.97;2854061;83;21595;-72
2021/04/09 11:08:04;;;;;;;8.70;7.08;;;;;;;15.12;42.57;100314.48;2853259;83;21154;-73
2021/04/09 11:12:31;;;;;;;12.95;8.83;;;;;;;15.14;43.77;100304.48;2862368;82;21122;-71
2021/04/09 11:16:56;;;;;;;10.43;8.13;;;;;;;15.16;43.40;100293.59;2850641;83;21117;-72
2021/04/09 11:21:03;;;;;;;7.97;6.83;;;;;;;15.23;42.91;100291.48;2855486;82;21094;-74
2021/04/09 11:25:08;;;;;;;7.30;6.60;;;;;;;15.26;44.53;100288.48;2850162;83;21090;-76
2021/04/09 11:29:25;;;;;;;8.80;7.17;;;;;;;15.38;44.15;100281.53;2847839;83;21169;-71
2021/04/09 11:33:36;;;;;;;14.33;7.95;;;;;;;15.50;43.08;100278.09;2838536;82;21564;-70
2021/04/09 11:37:47;;;;;;;14.33;9.78;;;;;;;15.62;41.54;100272.78;2853304;82;21142;-72
2021/04/09 11:42:06;;;;;;;9.85;7.80;;;;;;;15.68;42.87;100257.90;2852656;82;21576;-73
2021/04/09 11:46:10;;;;;;;11.70;7.12;;;;;;;15.61;41.97;100250.98;2855763;83;21496;-68
2021/04/09 11:50:25;;;;;;;10.28;8.00;;;;;;;15.64;43.04;100257.88;2857021;82;21141;-66
2021/04/09 11:54:40;;;;;;;8.60;6.33;;;;;;;15.77;42.48;100252.08;2827479;82;21152;-68
2021/04/09 11:58:43;;;;;;;6.72;6.10;;;;;;;15.81;41.92;100243.55;2808652;83;21208;-70
2021/04/09 12:02:59;;;;;;;11.28;6.08;;;;;;;15.98;41.00;100236.95;2855694;83;21126;-67
2021/04/09 12:07:04;;;;;;;7.42;6.70;;;;;;;16.13;41.41;100227.27;2854396;83;21125;-65
2021/04/09 12:11:08;;;;;;;8.75;6.95;;;;;;;16.22;41.79;100227.28;2858126;83;21082;-67
2021/04/09 12:15:15;;;;;;;9.18;6.08;;;;;;;16.36;41.47;100228.48;2819051;83;21632;-67
2021/04/09 12:19:18;;;;;;;7.78;5.87;;;;;;;16.44;41.45;100216.91;2835284;83;21102;-68
2021/04/09 12:23:22;;;;;;;8.58;6.25;;;;;;;16.51;41.51;100203.18;2851913;82;21098;-65
2021/04/09 12:27:24;;;;;;;10.70;6.15;;;;;;;16.62;40.17;100204.17;2861230;83;21136;-66
2021/04/09 12:31:27;;;;;;;14.23;8.08;;;;;;;16.68;41.08;100198.12;2854740;83;21157;-65
2021/04/09 12:35:30;;;;;;;12.30;7.42;;;;;;;16.66;41.00;100203.34;2861283;83;21105;-67
2021/04/09 12:39:33;;;;;;;11.12;7.72;;;;;;;16.63;41.56;100188.40;2836985;83;21188;-65
2021/04/09 12:43:36;;;;;;;12.93;8.63;;;;;;;16.64;41.85;100179.33;2865218;82;21200;-67
2021/04/09 12:47:39;;;;;;;8.60;7.70;;;;;;;16.59;41.78;100174.12;2866794;82;21111;-63
2021/04/09 12:51:46;;;;;;;11.18;8.60;;;;;;;16.45;41.55;100172.95;2861646;83;21136;-66
2021/04/09 12:55:52;;;;;;;11.97;7.92;;;;;;;16.36;41.51;100172.11;2866303;83;21131;-61
2021/04/09 12:59:56;;;;;;;10.53;7.75;;;;;;;16.44;42.80;100157.37;2863778;83;21624;-64
2021/04/09 13:04:03;;;;;;;10.10;6.80;;;;;;;16.64;40.95;100155.69;2865867;83;21151;-63
2021/04/09 13:08:06;;;;;;;8.58;6.53;;;;;;;16.74;40.84;100150.96;2866825;82;21101;-62
2021/04/09 13:12:12;;;;;;;8.90;7.53;;;;;;;16.67;41.85;100148.63;2866053;83;21104;-63
2021/04/09 13:16:14;;;;;;;10.05;7.78;;;;;;;16.61;41.15;100141.26;2822946;82;21120;-64
2021/04/09 13:20:20;;;;;;;8.23;7.53;;;;;;;16.46;41.23;100131.19;2846226;83;21181;-67
2021/04/09 13:24:23;;;;;;;25.90;9.60;;;;;;;16.30;39.83;100132.00;2863962;81;22145;-67
2021/04/09 13:28:29;;;;;;;9.60;8.40;;;;;;;16.28;41.71;100127.31;2839549;83;21067;-68
2021/04/09 13:32:32;;;;;;;9.38;8.10;;;;;;;16.36;42.12;100124.65;2867867;82;21153;-67
2021/04/09 13:36:36;;;;;;;10.00;7.90;;;;;;;16.38;41.65;100115.06;2820056;83;21078;-70
2021/04/09 13:40:39;;;;;;;9.95;8.00;;;;;;;16.35;41.16;100112.72;2817584;84;21560;-69
2021/04/09 13:44:44;;;;;;;12.63;8.13;;;;;;;16.26;41.50;100101.15;2820169;83;21145;-66
2021/04/09 13:48:49;;;;;;;9.83;8.05;;;;;;;16.16;42.48;100109.36;2817908;84;21110;-66
2021/04/09 13:52:53;;;;;;;10.23;8.48;;;;;;;16.10;42.38;100106.84;2818893;83;21133;-67
2021/04/09 13:56:57;;;;;;;13.20;8.53;;;;;;;15.99;42.34;100100.47;2770772;86;21162;-66
2021/04/09 14:01:05;;;;;;;13.80;9.60;;;;;;;15.91;42.84;100098.61;2773399;84;21607;-66
2021/04/09 14:05:14;;;;;;;14.00;8.90;;;;;;;15.92;43.21;100103.49;2818418;84;21142;-65
2021/04/09 14:09:17;;;;;;;14.28;9.38;;;;;;;15.85;43.37;100096.57;2837434;84;21106;-65
2021/04/09 14:13:22;;;;;;;13.85;9.63;;;;;;;15.76;44.10;100096.20;2868251;83;21132;-65
2021/04/09 14:17:25;;;;;;;15.07;9.37;;;;;;;15.72;43.42;100091.66;2868486;82;21112;-64
2021/04/09 14:21:29;;;;;;;8.75;7.40;;;;;;;15.68;43.40;100093.85;2847431;83;21120;-66
2021/04/09 14:25:32;;;;;;;11.15;8.38;;;;;;;15.72;43.64;100099.70;2849467;83;21601;-65
2021/04/09 14:29:36;;;;;;;14.20;8.98;;;;;;;15.78;43.74;100087.00;2867118;82;21099;-63
2021/04/09 14:33:43;;;;;;;15.80;9.70;;;;;;;15.81;42.94;100087.16;2847638;82;21157;-64
2021/04/09 14:37:48;;;;;;;15.13;8.48;;;;;;;15.74;42.38;100085.66;2844302;83;21139;-65
2021/04/09 14:41:54;;;;;;;13.30;9.13;;;;;;;15.70;42.50;100086.97;2838467;83;21202;-66
2021/04/09 14:45:57;;;;;;;14.60;11.12;;;;;;;15.70;42.96;100082.45;2842544;82;21155;-64
2021/04/09 14:50:02;;;;;;;13.30;8.65;;;;;;;15.69;43.00;100083.46;2861144;83;21463;-64
2021/04/09 14:54:07;;;;;;;12.85;10.25;;;;;;;15.73;43.15;100081.30;2866802;83;21133;-63
2021/04/09 14:58:16;;;;;;;12.55;10.03;;;;;;;15.68;42.82;100078.25;2865146;82;21565;-64
2021/04/09 15:02:19;;;;;;;18.12;13.95;;;;;;;15.55;42.44;100066.17;2866200;83;21125;-65
2021/04/09 15:06:23;;;;;;;12.55;8.65;;;;;;;15.48;43.66;100068.33;2866538;83;21560;-63
2021/04/09 15:10:28;;;;;;;13.90;11.20;;;;;;;15.43;42.91;100064.80;2866745;82;21070;-63
2021/04/09 15:14:31;;;;;;;14.78;11.15;;;;;;;15.32;43.53;100060.58;2862554;83;21122;-64
2021/04/09 15:18:34;;;;;;;17.48;10.48;;;;;;;15.33;43.19;100062.73;2846119;82;21139;-65
2021/04/09 15:22:40;;;;;;;14.13;9.25;;;;;;;15.31;43.23;100059.38;2856739;82;21098;-62
2021/04/09 15:26:43;;;;;;;15.23;9.25;;;;;;;15.30;43.34;100055.88;2866577;82;21146;-63
2021/04/09 15:30:46;;;;;;;18.52;10.20;;;;;;;15.33;43.27;100056.04;2845912;82;21515;-63
2021/04/09 15:34:49;;;;;;;10.78;9.20;;;;;;;15.38;43.53;100049.19;2815816;84;21587;-64
2021/04/09 15:38:56;;;;;;;57.38;20.40;;;;;;;15.37;43.16;100044.02;2815653;84;21105;-63
2021/04/09 15:42:58;;;;;;;19.23;11.33;;;;;;;15.36;43.97;100045.84;2816405;84;21140;-63
2021/04/09 15:47:01;;;;;;;17.60;10.20;;;;;;;15.33;43.94;100029.23;2812775;84;21161;-65
2021/04/09 15:51:04;;;;;;;16.37;10.98;;;;;;;15.22;43.74;100023.69;2773809;85;21174;-63
2021/04/09 15:55:09;;;;;;;16.07;9.98;;;;;;;15.15;43.72;100024.86;2791573;85;21532;-64
2021/04/09 15:59:12;;;;;;;17.27;11.50;;;;;;;15.04;44.03;100029.16;2789970;85;21548;-64
2021/04/09 16:03:15;;;;;;;31.82;20.88;;;;;;;14.96;44.61;100028.14;2794649;85;21599;-64
2021/04/09 16:07:21;;;;;;;26.33;18.00;;;;;;;14.87;44.16;100025.06;2797526;84;21098;-62
2021/04/09 16:11:25;;;;;;;43.52;18.95;;;;;;;14.79;44.36;100031.22;2795159;85;21173;-63
2021/04/09 16:15:30;;;;;;;61.90;36.73;;;;;;;14.73;44.22;100025.17;2790980;84;21560;-63
2021/04/09 16:19:34;;;;;;;57.78;30.23;;;;;;;14.63;44.71;100029.27;2784326;85;21528;-66
2021/04/09 16:23:37;;;;;;;72.03;39.42;;;;;;;14.58;45.07;100027.58;2749903;85;21134;-63
2021/04/09 16:27:44;;;;;;;160.72;91.28;;;;;;;14.52;45.65;100024.17;2790835;84;21129;-66
2021/04/09 16:31:47;;;;;;;106.22;56.10;;;;;;;14.42;47.67;100023.80;2797103;84;21125;-63
2021/04/09 16:35:51;;;;;;;135.45;79.32;;;;;;;14.28;48.49;100022.54;2834758;83;21121;-63
2021/04/09 16:39:54;;;;;;;82.80;47.75;;;;;;;14.12;49.49;100025.09;2854256;83;21149;-63
2021/04/09 16:43:57;;;;;;;78.87;48.10;;;;;;;13.99;49.41;100024.16;2857328;83;21154;-66
2021/04/09 16:48:00;;;;;;;101.75;58.15;;;;;;;13.89;50.11;100028.73;2858582;83;21635;-63
2021/04/09 16:52:06;;;;;;;104.30;66.15;;;;;;;13.78;50.62;100025.32;2840255;83;21144;-63
2021/04/09 16:56:09;;;;;;;148.05;78.87;;;;;;;13.66;51.16;100027.39;2825792;84;21144;-63
2021/04/09 17:00:15;;;;;;;157.88;89.55;;;;;;;13.54;51.55;100021.39;2826069;84;21504;-65
2021/04/09 17:04:19;;;;;;;145.70;79.80;;;;;;;13.46;51.81;100017.32;2825619;84;21160;-66
2021/04/09 17:08:22;;;;;;;135.82;66.75;;;;;;;13.37;51.57;100011.53;2825516;84;21112;-63
2021/04/09 17:12:26;;;;;;;54.77;33.88;;;;;;;13.27;51.71;100004.91;2825418;84;21585;-63
2021/04/09 17:16:29;;;;;;;92.27;49.42;;;;;;;13.10;52.14;100007.88;2825451;84;21128;-64
2021/04/09 17:20:32;;;;;;;96.72;60.70;;;;;;;12.95;52.89;100012.37;2823105;83;21107;-64
2021/04/09 17:24:36;;;;;;;63.78;43.70;;;;;;;12.81;53.16;100012.88;2846368;83;21146;-63
2021/04/09 17:28:39;;;;;;;51.83;35.05;;;;;;;12.66;53.43;100008.02;2834181;82;21141;-63
2021/04/09 17:32:42;;;;;;;27.95;19.62;;;;;;;12.48;53.94;100015.95;2835576;82;21165;-62
2021/04/09 17:36:46;;;;;;;40.65;23.52;;;;;;;12.21;54.44;100012.20;2851094;83;21142;-63
2021/04/09 17:40:50;;;;;;;44.65;28.32;;;;;;;12.00;54.98;100005.19;2850498;83;21199;-63
2021/04/09 17:44:54;;;;;;;50.60;32.98;;;;;;;11.78;55.38;100008.98;2850808;83;21153;-64
2021/04/09 17:48:57;;;;;;;48.95;32.88;;;;;;;11.60;55.69;100001.36;2855787;83;21162;-63
2021/04/09 17:53:01;;;;;;;86.85;62.27;;;;;;;11.38;56.26;99999.28;2829936;83;21164;-63
2021/04/09 17:57:07;;;;;;;75.10;57.15;;;;;;;11.18;57.01;99997.09;2823259;84;21461;-62
2021/04/09 18:01:10;;;;;;;;;;;;;;;10.97;57.44;99998.84;2825637;84;21128;-63
2021/04/09 18:05:14;;;;;;;68.35;46.35;;;;;;;10.76;58.53;100004.72;2809936;83;20493;-63
2021/04/09 18:09:17;;;;;;;46.37;30.72;;;;;;;10.56;58.98;100000.66;2802634;84;21117;-63
2021/04/09 18:13:21;;;;;;;44.18;31.33;;;;;;;10.40;59.31;100001.97;2802685;84;21144;-64
2021/04/09 18:17:24;;;;;;;39.03;25.50;;;;;;;10.32;59.33;100012.87;2831567;83;21141;-63
2021/04/09 18:21:28;;;;;;;42.10;25.08;;;;;;;10.21;59.63;100008.00;2851142;83;21177;-64
2021/04/09 18:25:32;;;;;;;35.38;22.52;;;;;;;10.11;59.68;100005.75;2848149;83;21149;-63
2021/04/09 18:29:38;;;;;;;47.45;22.67;;;;;;;9.99;59.71;100003.17;2850771;83;21162;-65
2021/04/09 18:33:43;;;;;;;31.52;19.77;;;;;;;9.92;59.40;99994.52;2850025;83;21176;-64
2021/04/09 18:37:47;;;;;;;22.87;16.62;;;;;;;9.93;58.78;99992.21;2849904;83;21157;-63
2021/04/09 18:41:50;;;;;;;24.07;16.20;;;;;;;9.99;58.28;99997.00;2849097;83;21162;-65
2021/04/09 18:45:54;;;;;;;31.42;20.45;;;;;;;10.02;57.63;99995.91;2849500;83;21161;-63
2021/04/09 18:49:57;;;;;;;30.40;19.62;;;;;;;10.09;57.12;99991.28;2824409;83;21886;-63
2021/04/09 18:54:00;;;;;;;40.52;25.60;;;;;;;10.13;56.68;99990.55;2834402;83;21901;-62
2021/04/09 18:58:03;;;;;;;42.65;31.65;;;;;;;10.20;56.06;99993.02;2845902;83;21189;-64